createdAt,value
2022-12-04T00:00:08.476Z,0.00
2022-12-04T00:01:08.508Z,0.00
2022-12-04T00:02:08.470Z,0.00
2022-12-04T00:03:08.477Z,0.00
2022-12-04T00:04:08.468Z,0.00
2022-12-04T00:05:08.452Z,0.00
2022-12-04T00:06:08.452Z,0.00
2022-12-04T00:07:08.378Z,0.00
2022-12-04T00:08:08.417Z,0.00
2022-12-04T00:09:08.397Z,0.00
2022-12-04T00:10:08.367Z,0.00
2022-12-04T00:11:08.383Z,0.00
2022-12-04T00:12:08.320Z,0.00
2022-12-04T00:13:08.319Z,0.00
2022-12-04T00:14:08.341Z,0.00
2022-12-04T00:15:25.612Z,0.00
2022-12-04T00:16:09.310Z,0.00
2022-12-04T00:17:08.326Z,0.00
2022-12-04T00:18:08.268Z,0.00
2022-12-04T00:19:08.265Z,0.00
2022-12-04T00:20:08.241Z,0.00
2022-12-04T00:21:08.239Z,0.00
2022-12-04T00:22:08.218Z,0.00
2022-12-04T00:23:08.248Z,0.00
2022-12-04T00:24:08.192Z,0.00
2022-12-04T00:25:08.172Z,0.00
2022-12-04T00:26:08.173Z,0.00
2022-12-04T00:27:08.178Z,0.00
2022-12-04T00:28:08.154Z,0.00
2022-12-04T00:29:08.191Z,0.00
2022-12-04T00:30:08.135Z,0.00
2022-12-04T00:31:08.145Z,0.00
2022-12-04T00:32:08.204Z,0.00
2022-12-04T00:33:08.119Z,0.00
2022-12-04T00:34:08.449Z,0.00
2022-12-04T00:35:08.058Z,0.00
2022-12-04T00:36:08.072Z,0.00
2022-12-04T00:37:08.057Z,0.00
2022-12-04T00:38:08.044Z,0.00
2022-12-04T00:39:08.058Z,0.00
2022-12-04T00:40:08.034Z,0.00
2022-12-04T00:41:08.082Z,0.00
2022-12-04T00:42:08.015Z,0.00
2022-12-04T00:43:07.990Z,0.00
2022-12-04T00:44:07.996Z,0.00
2022-12-04T00:45:08.004Z,0.00
2022-12-04T00:46:08.041Z,0.00
2022-12-04T00:47:07.938Z,0.00
2022-12-04T00:48:07.921Z,0.00
2022-12-04T00:49:07.921Z,0.00
2022-12-04T00:50:07.949Z,0.00
2022-12-04T00:51:07.894Z,0.00
2022-12-04T00:52:07.871Z,0.00
2022-12-04T00:53:07.856Z,0.00
2022-12-04T00:54:07.861Z,0.00
2022-12-04T00:55:07.866Z,0.00
2022-12-04T00:56:07.824Z,0.00
2022-12-04T00:57:07.828Z,0.00
2022-12-04T00:58:08.027Z,0.00
2022-12-04T00:59:07.791Z,0.00
2022-12-04T01:00:07.794Z,0.00
2022-12-04T01:01:07.886Z,0.00
2022-12-04T01:02:07.806Z,0.00
2022-12-04T01:03:07.920Z,0.00
2022-12-04T01:04:07.753Z,0.00
2022-12-04T01:05:07.732Z,0.00
2022-12-04T01:06:07.750Z,0.00
2022-12-04T01:07:07.745Z,0.00
2022-12-04T01:08:07.851Z,0.00
2022-12-04T01:09:07.747Z,0.00
2022-12-04T01:10:07.667Z,0.00
2022-12-04T01:11:07.669Z,0.00
2022-12-04T01:12:07.667Z,0.00
2022-12-04T01:13:07.684Z,0.00
2022-12-04T01:14:07.626Z,0.00
2022-12-04T01:15:07.620Z,0.00
2022-12-04T01:16:07.731Z,0.00
2022-12-04T01:17:07.632Z,0.00
2022-12-04T01:18:07.623Z,0.00
2022-12-04T01:19:07.567Z,0.00
2022-12-04T01:20:07.596Z,0.00
2022-12-04T01:21:07.556Z,0.00
2022-12-04T01:22:07.560Z,0.00
2022-12-04T01:23:07.536Z,0.00
2022-12-04T01:24:07.546Z,0.00
2022-12-04T01:25:07.509Z,0.00
2022-12-04T01:26:07.492Z,0.00
2022-12-04T01:27:07.473Z,0.00
2022-12-04T01:28:07.489Z,0.00
2022-12-04T01:29:07.476Z,0.00
2022-12-04T01:30:07.496Z,0.00
2022-12-04T01:31:07.430Z,0.00
2022-12-04T01:32:07.465Z,0.00
2022-12-04T01:33:07.419Z,0.00
2022-12-04T01:34:07.410Z,0.00
2022-12-04T01:35:07.417Z,0.00
2022-12-04T01:36:07.422Z,0.00
2022-12-04T01:37:07.425Z,0.00
2022-12-04T01:38:07.390Z,0.00
2022-12-04T01:39:07.349Z,0.00
2022-12-04T01:40:07.351Z,0.00
2022-12-04T01:41:07.363Z,0.00
2022-12-04T01:42:07.306Z,0.00
2022-12-04T01:43:07.324Z,0.00
2022-12-04T01:44:07.283Z,0.00
2022-12-04T01:45:07.297Z,0.00
2022-12-04T01:46:07.432Z,0.00
2022-12-04T01:47:07.256Z,0.00
2022-12-04T01:48:07.402Z,0.00
2022-12-04T01:49:07.284Z,0.00
2022-12-04T01:50:07.272Z,0.00
2022-12-04T01:51:07.217Z,0.00
2022-12-04T01:52:07.238Z,0.00
2022-12-04T01:53:07.180Z,0.00
2022-12-04T01:54:07.198Z,0.00
2022-12-04T01:55:07.164Z,0.00
2022-12-04T01:56:07.166Z,0.00
2022-12-04T01:57:07.214Z,0.00
2022-12-04T01:58:07.167Z,0.00
2022-12-04T01:59:07.115Z,0.00
2022-12-04T02:00:07.107Z,0.00
2022-12-04T02:01:09.094Z,0.00
2022-12-04T02:02:07.239Z,0.00
2022-12-04T02:03:07.161Z,0.00
2022-12-04T02:04:07.102Z,0.00
2022-12-04T02:05:07.061Z,0.00
2022-12-04T02:06:07.059Z,0.00
2022-12-04T02:07:07.052Z,0.00
2022-12-04T02:08:07.116Z,0.00
2022-12-04T02:09:07.034Z,0.00
2022-12-04T02:10:07.012Z,0.00
2022-12-04T02:11:07.084Z,0.00
2022-12-04T02:12:07.015Z,0.00
2022-12-04T02:13:07.002Z,0.00
2022-12-04T02:14:06.968Z,0.00
2022-12-04T02:15:06.937Z,0.00
2022-12-04T02:16:06.993Z,0.00
2022-12-04T02:17:06.994Z,0.00
2022-12-04T02:18:06.956Z,0.00
2022-12-04T02:19:06.905Z,0.00
2022-12-04T02:20:06.901Z,0.00
2022-12-04T02:21:06.866Z,0.00
2022-12-04T02:22:06.919Z,0.00
2022-12-04T02:23:06.872Z,0.00
2022-12-04T02:24:06.865Z,0.00
2022-12-04T02:25:06.835Z,0.00
2022-12-04T02:26:06.870Z,0.00
2022-12-04T02:27:06.799Z,0.00
2022-12-04T02:28:06.869Z,0.00
2022-12-04T02:29:06.779Z,0.00
2022-12-04T02:30:06.803Z,0.00
2022-12-04T02:31:06.900Z,0.00
2022-12-04T02:32:06.782Z,0.00
2022-12-04T02:33:06.733Z,0.00
2022-12-04T02:34:06.740Z,0.00
2022-12-04T02:35:06.735Z,0.00
2022-12-04T02:36:06.753Z,0.00
2022-12-04T02:37:06.724Z,0.00
2022-12-04T02:38:06.724Z,0.00
2022-12-04T02:39:06.666Z,0.00
2022-12-04T02:40:06.669Z,0.00
2022-12-04T02:41:06.680Z,0.00
2022-12-04T02:42:06.681Z,0.00
2022-12-04T02:43:06.651Z,0.00
2022-12-04T02:44:06.668Z,0.00
2022-12-04T02:45:06.596Z,0.00
2022-12-04T02:46:06.657Z,0.00
2022-12-04T02:47:06.586Z,0.00
2022-12-04T02:48:06.622Z,0.00
2022-12-04T02:49:06.594Z,0.00
2022-12-04T02:50:06.541Z,0.00
2022-12-04T02:51:06.590Z,0.00
2022-12-04T02:52:06.549Z,0.00
2022-12-04T02:53:06.533Z,0.00
2022-12-04T02:54:06.533Z,0.00
2022-12-04T02:55:08.589Z,0.00
2022-12-04T02:56:06.473Z,0.00
2022-12-04T02:57:06.485Z,0.00
2022-12-04T02:58:06.479Z,0.00
2022-12-04T02:59:06.467Z,0.00
2022-12-04T03:00:06.464Z,0.00
2022-12-04T03:01:06.477Z,0.00
2022-12-04T03:02:06.500Z,0.00
2022-12-04T03:03:06.418Z,0.00
2022-12-04T03:04:06.397Z,0.00
2022-12-04T03:05:06.428Z,0.00
2022-12-04T03:06:06.442Z,0.00
2022-12-04T03:07:06.351Z,0.00
2022-12-04T03:08:06.405Z,0.00
2022-12-04T03:09:06.331Z,0.00
2022-12-04T03:10:06.328Z,0.00
2022-12-04T03:11:06.346Z,0.00
2022-12-04T03:12:06.338Z,0.00
2022-12-04T03:13:06.285Z,0.00
2022-12-04T03:14:06.306Z,0.00
2022-12-04T03:15:06.292Z,0.00
2022-12-04T03:16:06.296Z,0.00
2022-12-04T03:17:06.363Z,0.00
2022-12-04T03:18:06.235Z,0.00
2022-12-04T03:19:06.217Z,0.00
2022-12-04T03:20:07.054Z,0.00
2022-12-04T03:21:06.209Z,0.00
2022-12-04T03:22:06.238Z,0.00
2022-12-04T03:23:06.176Z,0.00
2022-12-04T03:24:06.191Z,0.00
2022-12-04T03:25:06.155Z,0.00
2022-12-04T03:26:06.168Z,0.00
2022-12-04T03:27:06.150Z,0.00
2022-12-04T03:28:06.155Z,0.00
2022-12-04T03:29:06.151Z,0.00
2022-12-04T03:30:06.117Z,0.00
2022-12-04T03:31:06.158Z,0.00
2022-12-04T03:32:06.112Z,0.00
2022-12-04T03:33:06.073Z,0.00
2022-12-04T03:34:06.094Z,0.00
2022-12-04T03:35:06.038Z,0.00
2022-12-04T03:36:06.032Z,0.00
2022-12-04T03:37:06.067Z,0.00
2022-12-04T03:38:06.015Z,0.00
2022-12-04T03:39:06.016Z,0.00
2022-12-04T03:40:06.028Z,0.00
2022-12-04T03:41:06.027Z,0.00
2022-12-04T03:42:06.043Z,0.00
2022-12-04T03:43:05.949Z,0.00
2022-12-04T03:44:05.955Z,0.00
2022-12-04T03:45:05.966Z,0.00
2022-12-04T03:46:06.092Z,0.00
2022-12-04T03:47:05.903Z,0.00
2022-12-04T03:48:05.904Z,0.00
2022-12-04T03:49:05.939Z,0.00
2022-12-04T03:50:05.882Z,0.00
2022-12-04T03:51:05.894Z,0.00
2022-12-04T03:52:05.848Z,0.00
2022-12-04T03:53:05.871Z,0.00
2022-12-04T03:54:05.847Z,0.00
2022-12-04T03:55:05.831Z,0.00
2022-12-04T03:56:05.841Z,0.00
2022-12-04T03:57:05.827Z,0.00
2022-12-04T03:58:05.847Z,0.00
2022-12-04T03:59:05.784Z,0.00
2022-12-04T04:00:05.761Z,0.00
2022-12-04T04:01:05.835Z,0.00
2022-12-04T04:02:06.054Z,0.00
2022-12-04T04:03:05.996Z,0.00
2022-12-04T04:04:05.728Z,0.00
2022-12-04T04:05:05.714Z,0.00
2022-12-04T04:06:05.702Z,0.00
2022-12-04T04:07:05.728Z,0.00
2022-12-04T04:08:05.716Z,0.00
2022-12-04T04:09:05.658Z,0.00
2022-12-04T04:10:05.651Z,0.00
2022-12-04T04:11:05.652Z,0.00
2022-12-04T04:12:05.668Z,0.00
2022-12-04T04:13:05.630Z,0.00
2022-12-04T04:14:05.638Z,0.00
2022-12-04T04:15:05.590Z,0.00
2022-12-04T04:16:05.737Z,0.00
2022-12-04T04:17:05.568Z,0.00
2022-12-04T04:18:05.596Z,0.00
2022-12-04T04:19:05.587Z,0.00
2022-12-04T04:20:05.577Z,0.00
2022-12-04T04:21:05.582Z,0.00
2022-12-04T04:22:05.522Z,0.00
2022-12-04T04:23:05.508Z,0.00
2022-12-04T04:24:05.519Z,0.00
2022-12-04T04:25:05.519Z,0.00
2022-12-04T04:26:06.036Z,0.00
2022-12-04T04:27:05.459Z,0.00
2022-12-04T04:28:05.479Z,0.00
2022-12-04T04:29:05.477Z,0.00
2022-12-04T04:30:05.477Z,0.00
2022-12-04T04:31:05.488Z,0.00
2022-12-04T04:32:05.400Z,0.00
2022-12-04T04:33:05.392Z,0.00
2022-12-04T04:34:05.406Z,0.00
2022-12-04T04:35:05.417Z,0.00
2022-12-04T04:36:05.378Z,0.00
2022-12-04T04:37:05.351Z,0.00
2022-12-04T04:38:05.338Z,0.00
2022-12-04T04:39:05.347Z,0.00
2022-12-04T04:40:05.312Z,0.00
2022-12-04T04:41:05.327Z,0.00
2022-12-04T04:42:05.319Z,0.00
2022-12-04T04:43:05.281Z,0.00
2022-12-04T04:44:05.330Z,0.00
2022-12-04T04:45:05.274Z,0.00
2022-12-04T04:46:05.333Z,0.00
2022-12-04T04:47:05.263Z,0.00
2022-12-04T04:48:05.273Z,0.00
2022-12-04T04:49:05.227Z,0.00
2022-12-04T04:50:05.224Z,0.00
2022-12-04T04:51:05.190Z,0.00
2022-12-04T04:52:05.221Z,0.00
2022-12-04T04:53:05.200Z,0.00
2022-12-04T04:54:05.174Z,0.00
2022-12-04T04:55:05.159Z,0.00
2022-12-04T04:56:05.141Z,0.00
2022-12-04T04:57:05.149Z,0.00
2022-12-04T04:58:05.152Z,0.00
2022-12-04T04:59:05.140Z,0.00
2022-12-04T05:00:05.092Z,0.00
2022-12-04T05:01:05.099Z,0.00
2022-12-04T05:02:05.186Z,0.00
2022-12-04T05:03:05.189Z,0.00
2022-12-04T05:04:05.071Z,0.00
2022-12-04T05:05:05.081Z,0.00
2022-12-04T05:06:05.075Z,0.00
2022-12-04T05:07:05.047Z,0.00
2022-12-04T05:08:05.093Z,0.00
2022-12-04T05:09:05.003Z,0.00
2022-12-04T05:10:05.008Z,0.00
2022-12-04T05:11:05.019Z,0.00
2022-12-04T05:12:05.013Z,0.00
2022-12-04T05:13:04.950Z,0.00
2022-12-04T05:14:04.961Z,0.00
2022-12-04T05:15:04.963Z,0.00
2022-12-04T05:16:05.992Z,0.00
2022-12-04T05:17:10.758Z,0.00
2022-12-04T05:18:05.916Z,0.00
2022-12-04T05:19:04.892Z,0.00
2022-12-04T05:20:04.875Z,0.00
2022-12-04T05:21:04.881Z,0.00
2022-12-04T05:22:04.876Z,0.00
2022-12-04T05:23:04.885Z,0.00
2022-12-04T05:24:04.820Z,0.00
2022-12-04T05:25:04.834Z,0.00
2022-12-04T05:26:04.812Z,0.00
2022-12-04T05:27:04.821Z,0.00
2022-12-04T05:28:04.819Z,0.00
2022-12-04T05:29:04.765Z,0.00
2022-12-04T05:30:04.831Z,0.00
2022-12-04T05:31:04.860Z,0.00
2022-12-04T05:32:04.750Z,0.00
2022-12-04T05:33:04.765Z,0.00
2022-12-04T05:34:04.707Z,0.00
2022-12-04T05:35:10.630Z,0.00
2022-12-04T05:36:05.699Z,0.00
2022-12-04T05:37:04.684Z,0.00
2022-12-04T05:38:04.745Z,0.00
2022-12-04T05:39:04.696Z,0.00
2022-12-04T05:40:04.644Z,0.00
2022-12-04T05:41:04.654Z,0.00
2022-12-04T05:42:04.624Z,0.00
2022-12-04T05:43:04.623Z,0.00
2022-12-04T05:44:04.627Z,0.00
2022-12-04T05:45:04.641Z,0.00
2022-12-04T05:46:04.575Z,0.00
2022-12-04T05:47:04.640Z,0.00
2022-12-04T05:48:05.577Z,0.00
2022-12-04T05:49:04.564Z,0.00
2022-12-04T05:50:04.568Z,0.00
2022-12-04T05:51:04.581Z,0.00
2022-12-04T05:52:04.505Z,0.00
2022-12-04T05:53:04.512Z,0.00
2022-12-04T05:54:04.543Z,0.00
2022-12-04T05:55:04.497Z,0.00
2022-12-04T05:56:04.510Z,0.00
2022-12-04T05:57:04.500Z,0.00
2022-12-04T05:58:04.468Z,0.00
2022-12-04T05:59:04.435Z,0.00
2022-12-04T06:00:04.437Z,0.00
2022-12-04T06:01:04.438Z,0.00
2022-12-04T06:02:04.538Z,0.00
2022-12-04T06:03:04.422Z,0.00
2022-12-04T06:04:04.379Z,0.00
2022-12-04T06:05:04.392Z,0.00
2022-12-04T06:06:04.371Z,0.00
2022-12-04T06:07:04.378Z,0.00
2022-12-04T06:08:04.365Z,0.00
2022-12-04T06:09:04.389Z,0.00
2022-12-04T06:10:04.341Z,0.00
2022-12-04T06:11:04.305Z,0.00
2022-12-04T06:12:04.341Z,0.00
2022-12-04T06:13:04.310Z,0.00
2022-12-04T06:14:04.259Z,0.00
2022-12-04T06:15:04.256Z,0.00
2022-12-04T06:16:04.282Z,0.00
2022-12-04T06:17:04.276Z,0.00
2022-12-04T06:18:04.383Z,0.00
2022-12-04T06:19:04.211Z,0.00
2022-12-04T06:20:09.575Z,0.00
2022-12-04T06:21:05.273Z,0.00
2022-12-04T06:22:04.200Z,0.00
2022-12-04T06:23:04.216Z,0.00
2022-12-04T06:24:04.178Z,0.00
2022-12-04T06:25:04.139Z,0.00
2022-12-04T06:26:07.090Z,0.00
2022-12-04T06:27:26.722Z,0.00
2022-12-04T06:28:05.137Z,0.00
2022-12-04T06:29:04.120Z,0.00
2022-12-04T06:30:05.046Z,0.00
2022-12-04T06:31:04.071Z,0.00
2022-12-04T06:32:04.204Z,0.00
2022-12-04T06:33:04.069Z,0.00
2022-12-04T06:34:04.056Z,0.00
2022-12-04T06:35:04.058Z,4.00
2022-12-04T06:36:04.022Z,4.00
2022-12-04T06:37:04.060Z,4.00
2022-12-04T06:38:04.000Z,4.00
2022-12-04T06:39:04.013Z,4.00
2022-12-04T06:40:04.022Z,0.00
2022-12-04T06:41:04.098Z,4.00
2022-12-04T06:42:03.969Z,4.00
2022-12-04T06:43:03.935Z,8.00
2022-12-04T06:44:04.007Z,8.00
2022-12-04T06:45:03.954Z,4.00
2022-12-04T06:46:04.034Z,4.00
2022-12-04T06:47:03.935Z,8.00
2022-12-04T06:48:03.880Z,8.00
2022-12-04T06:49:03.873Z,8.00
2022-12-04T06:50:04.102Z,12.00
2022-12-04T06:51:03.866Z,8.00
2022-12-04T06:52:03.909Z,12.00
2022-12-04T06:53:08.293Z,8.00
2022-12-04T06:54:03.815Z,12.00
2022-12-04T06:55:03.834Z,12.00
2022-12-04T06:56:03.828Z,16.00
2022-12-04T06:57:03.799Z,16.00
2022-12-04T06:58:03.826Z,16.00
2022-12-04T06:59:03.765Z,16.00
2022-12-04T07:00:03.761Z,20.00
2022-12-04T07:01:04.122Z,16.00
2022-12-04T07:02:03.803Z,20.00
2022-12-04T07:03:03.769Z,20.00
2022-12-04T07:04:03.783Z,20.00
2022-12-04T07:05:03.693Z,24.00
2022-12-04T07:06:03.682Z,28.00
2022-12-04T07:07:03.689Z,28.00
2022-12-04T07:08:03.756Z,28.00
2022-12-04T07:09:03.683Z,32.00
2022-12-04T07:10:03.687Z,28.00
2022-12-04T07:11:03.626Z,32.00
2022-12-04T07:12:03.619Z,28.00
2022-12-04T07:13:03.623Z,32.00
2022-12-04T07:14:03.663Z,32.00
2022-12-04T07:15:03.623Z,36.00
2022-12-04T07:16:03.664Z,40.00
2022-12-04T07:17:03.628Z,40.00
2022-12-04T07:18:03.583Z,44.00
2022-12-04T07:19:03.579Z,52.00
2022-12-04T07:20:03.551Z,48.00
2022-12-04T07:21:03.554Z,44.00
2022-12-04T07:22:03.558Z,48.00
2022-12-04T07:23:07.211Z,52.00
2022-12-04T07:24:03.508Z,56.00
2022-12-04T07:25:03.514Z,56.00
2022-12-04T07:26:03.489Z,60.00
2022-12-04T07:27:03.456Z,56.00
2022-12-04T07:28:03.458Z,56.00
2022-12-04T07:29:03.427Z,52.00
2022-12-04T07:30:03.636Z,52.00
2022-12-04T07:31:03.415Z,60.00
2022-12-04T07:32:03.640Z,64.00
2022-12-04T07:33:03.379Z,68.00
2022-12-04T07:34:03.381Z,64.00
2022-12-04T07:35:03.396Z,68.00
2022-12-04T07:36:03.370Z,68.00
2022-12-04T07:37:03.385Z,60.00
2022-12-04T07:38:03.366Z,60.00
2022-12-04T07:39:03.367Z,60.00
2022-12-04T07:40:03.312Z,60.00
2022-12-04T07:41:03.305Z,64.00
2022-12-04T07:42:03.301Z,64.00
2022-12-04T07:43:03.295Z,64.00
2022-12-04T07:44:03.299Z,64.00
2022-12-04T07:45:03.258Z,64.00
2022-12-04T07:46:03.366Z,68.00
2022-12-04T07:47:03.322Z,72.00
2022-12-04T07:48:03.228Z,68.00
2022-12-04T07:49:03.228Z,68.00
2022-12-04T07:50:03.194Z,72.00
2022-12-04T07:51:03.177Z,84.00
2022-12-04T07:52:03.196Z,76.00
2022-12-04T07:53:03.159Z,84.00
2022-12-04T07:54:04.442Z,88.00
2022-12-04T07:55:03.170Z,84.00
2022-12-04T07:56:03.124Z,84.00
2022-12-04T07:57:03.135Z,80.00
2022-12-04T07:58:03.139Z,76.00
2022-12-04T07:59:03.127Z,80.00
2022-12-04T08:00:03.149Z,80.00
2022-12-04T08:01:03.161Z,80.00
2022-12-04T08:02:03.084Z,84.00
2022-12-04T08:03:03.049Z,88.00
2022-12-04T08:04:03.256Z,88.00
2022-12-04T08:05:03.105Z,92.00
2022-12-04T08:06:03.044Z,104.00
2022-12-04T08:07:03.078Z,112.00
2022-12-04T08:08:11.654Z,128.00
2022-12-04T08:09:09.251Z,140.00
2022-12-04T08:10:03.990Z,156.00
2022-12-04T08:11:02.980Z,160.00
2022-12-04T08:12:02.992Z,168.00
2022-12-04T08:13:02.934Z,188.00
2022-12-04T08:14:02.946Z,188.00
2022-12-04T08:15:02.934Z,196.00
2022-12-04T08:16:02.947Z,188.00
2022-12-04T08:17:02.964Z,188.00
2022-12-04T08:18:02.953Z,204.00
2022-12-04T08:19:02.866Z,212.00
2022-12-04T08:20:02.880Z,196.00
2022-12-04T08:21:02.953Z,212.00
2022-12-04T08:22:02.850Z,228.00
2022-12-04T08:23:02.856Z,228.00
2022-12-04T08:24:02.836Z,212.00
2022-12-04T08:25:02.805Z,204.00
2022-12-04T08:26:02.819Z,204.00
2022-12-04T08:27:02.823Z,212.00
2022-12-04T08:28:02.788Z,188.00
2022-12-04T08:29:02.823Z,176.00
2022-12-04T08:30:02.745Z,188.00
2022-12-04T08:31:02.860Z,204.00
2022-12-04T08:32:03.163Z,200.00
2022-12-04T08:33:03.163Z,184.00
2022-12-04T08:34:02.757Z,180.00
2022-12-04T08:35:02.762Z,184.00
2022-12-04T08:36:02.723Z,188.00
2022-12-04T08:37:02.739Z,196.00
2022-12-04T08:38:02.685Z,196.00
2022-12-04T08:39:02.661Z,200.00
2022-12-04T08:40:02.666Z,196.00
2022-12-04T08:41:02.621Z,196.00
2022-12-04T08:42:02.662Z,200.00
2022-12-04T08:43:02.623Z,196.00
2022-12-04T08:44:02.617Z,200.00
2022-12-04T08:45:02.592Z,232.00
2022-12-04T08:46:02.681Z,272.00
2022-12-04T08:47:02.602Z,260.00
2022-12-04T08:48:02.542Z,272.00
2022-12-04T08:49:02.546Z,280.00
2022-12-04T08:50:02.564Z,280.00
2022-12-04T08:51:02.541Z,268.00
2022-12-04T08:52:02.552Z,256.00
2022-12-04T08:53:02.503Z,256.00
2022-12-04T08:54:02.477Z,236.00
2022-12-04T08:55:02.660Z,240.00
2022-12-04T08:56:02.480Z,220.00
2022-12-04T08:57:02.512Z,216.00
2022-12-04T08:58:02.429Z,232.00
2022-12-04T08:59:02.417Z,232.00
2022-12-04T09:00:02.508Z,216.00
2022-12-04T09:01:02.457Z,204.00
2022-12-04T09:02:02.491Z,204.00
2022-12-04T09:03:02.420Z,208.00
2022-12-04T09:04:02.407Z,212.00
2022-12-04T09:05:02.349Z,216.00
2022-12-04T09:06:02.470Z,204.00
2022-12-04T09:07:02.352Z,196.00
2022-12-04T09:08:02.510Z,188.00
2022-12-04T09:09:02.347Z,192.00
2022-12-04T09:10:02.301Z,180.00
2022-12-04T09:11:02.285Z,192.00
2022-12-04T09:12:02.297Z,200.00
2022-12-04T09:13:02.321Z,196.00
2022-12-04T09:14:02.270Z,196.00
2022-12-04T09:15:02.315Z,216.00
2022-12-04T09:16:02.327Z,240.00
2022-12-04T09:17:02.241Z,252.00
2022-12-04T09:18:02.246Z,256.00
2022-12-04T09:19:02.226Z,232.00
2022-12-04T09:20:02.547Z,228.00
2022-12-04T09:21:02.198Z,228.00
2022-12-04T09:22:02.188Z,240.00
2022-12-04T09:23:04.419Z,268.00
2022-12-04T09:24:02.180Z,272.00
2022-12-04T09:25:02.195Z,284.00
2022-12-04T09:26:02.158Z,276.00
2022-12-04T09:27:02.225Z,280.00
2022-12-04T09:28:02.098Z,280.00
2022-12-04T09:29:02.100Z,284.00
2022-12-04T09:30:02.133Z,296.00
2022-12-04T09:31:02.170Z,312.00
2022-12-04T09:32:02.122Z,332.00
2022-12-04T09:33:02.039Z,336.00
2022-12-04T09:34:02.041Z,340.00
2022-12-04T09:35:02.041Z,368.00
2022-12-04T09:36:02.041Z,396.00
2022-12-04T09:37:02.089Z,376.00
2022-12-04T09:38:02.058Z,336.00
2022-12-04T09:39:01.973Z,308.00
2022-12-04T09:40:01.986Z,316.00
2022-12-04T09:41:01.961Z,352.00
2022-12-04T09:42:02.011Z,376.00
2022-12-04T09:43:01.975Z,388.00
2022-12-04T09:44:01.973Z,424.00
2022-12-04T09:45:01.920Z,420.00
2022-12-04T09:46:01.939Z,428.00
2022-12-04T09:47:02.124Z,420.00
2022-12-04T09:48:01.915Z,416.00
2022-12-04T09:49:01.905Z,392.00
2022-12-04T09:50:01.852Z,384.00
2022-12-04T09:51:01.850Z,408.00
2022-12-04T09:52:01.943Z,400.00
2022-12-04T09:53:01.871Z,388.00
2022-12-04T09:54:01.876Z,364.00
2022-12-04T09:55:01.797Z,340.00
2022-12-04T09:56:01.787Z,328.00
2022-12-04T09:57:01.977Z,340.00
2022-12-04T09:58:02.588Z,344.00
2022-12-04T09:59:01.791Z,328.00
2022-12-04T10:00:01.884Z,308.00
2022-12-04T10:01:01.727Z,296.00
2022-12-04T10:02:01.719Z,284.00
2022-12-04T10:03:01.833Z,284.00
2022-12-04T10:04:06.051Z,268.00
2022-12-04T10:05:01.732Z,260.00
2022-12-04T10:06:01.673Z,276.00
2022-12-04T10:07:01.660Z,284.00
2022-12-04T10:08:01.747Z,284.00
2022-12-04T10:09:01.652Z,268.00
2022-12-04T10:10:01.685Z,256.00
2022-12-04T10:11:01.659Z,248.00
2022-12-04T10:12:01.604Z,256.00
2022-12-04T10:13:01.595Z,260.00
2022-12-04T10:14:01.618Z,292.00
2022-12-04T10:15:01.600Z,312.00
2022-12-04T10:16:01.655Z,320.00
2022-12-04T10:17:01.591Z,316.00
2022-12-04T10:18:01.552Z,324.00
2022-12-04T10:19:01.622Z,328.00
2022-12-04T10:20:01.528Z,340.00
2022-12-04T10:21:01.536Z,340.00
2022-12-04T10:22:01.539Z,328.00
2022-12-04T10:23:01.480Z,308.00
2022-12-04T10:24:01.472Z,320.00
2022-12-04T10:25:01.466Z,316.00
2022-12-04T10:26:01.498Z,312.00
2022-12-04T10:27:01.451Z,312.00
2022-12-04T10:28:01.493Z,316.00
2022-12-04T10:29:01.412Z,328.00
2022-12-04T10:30:01.403Z,316.00
2022-12-04T10:31:01.457Z,296.00
2022-12-04T10:32:01.434Z,292.00
2022-12-04T10:33:01.389Z,316.00
2022-12-04T10:34:01.395Z,352.00
2022-12-04T10:35:01.361Z,404.00
2022-12-04T10:36:01.360Z,500.00
2022-12-04T10:37:01.337Z,496.00
2022-12-04T10:38:01.356Z,468.00
2022-12-04T10:39:01.373Z,452.00
2022-12-04T10:40:01.292Z,460.00
2022-12-04T10:41:01.278Z,436.00
2022-12-04T10:42:01.293Z,484.00
2022-12-04T10:43:01.286Z,488.00
2022-12-04T10:44:01.284Z,452.00
2022-12-04T10:45:01.271Z,480.00
2022-12-04T10:46:01.284Z,484.00
2022-12-04T10:47:01.298Z,524.00
2022-12-04T10:48:01.294Z,540.00
2022-12-04T10:49:01.234Z,528.00
2022-12-04T10:50:01.197Z,544.00
2022-12-04T10:51:01.193Z,580.00
2022-12-04T10:52:01.216Z,584.00
2022-12-04T10:53:01.149Z,632.00
2022-12-04T10:54:01.154Z,664.00
2022-12-04T10:55:01.131Z,680.00
2022-12-04T10:56:01.170Z,696.00
2022-12-04T10:57:01.150Z,644.00
2022-12-04T10:58:01.127Z,588.00
2022-12-04T10:59:01.076Z,612.00
2022-12-04T11:00:01.094Z,572.00
2022-12-04T11:01:01.084Z,504.00
2022-12-04T11:02:06.327Z,484.00
2022-12-04T11:03:02.135Z,436.00
2022-12-04T11:04:01.027Z,444.00
2022-12-04T11:05:01.021Z,420.00
2022-12-04T11:06:01.035Z,432.00
2022-12-04T11:07:01.039Z,452.00
2022-12-04T11:08:01.141Z,436.00
2022-12-04T11:09:00.975Z,412.00
2022-12-04T11:10:00.957Z,368.00
2022-12-04T11:11:01.168Z,344.00
2022-12-04T11:12:00.972Z,344.00
2022-12-04T11:13:00.946Z,344.00
2022-12-04T11:14:00.972Z,336.00
2022-12-04T11:15:00.899Z,328.00
2022-12-04T11:16:01.050Z,324.00
2022-12-04T11:17:00.905Z,312.00
2022-12-04T11:18:00.882Z,296.00
2022-12-04T11:19:00.885Z,296.00
2022-12-04T11:20:00.851Z,292.00
2022-12-04T11:21:00.858Z,280.00
2022-12-04T11:22:00.846Z,272.00
2022-12-04T11:23:00.817Z,260.00
2022-12-04T11:24:00.820Z,232.00
2022-12-04T11:25:00.827Z,228.00
2022-12-04T11:26:05.970Z,236.00
2022-12-04T11:27:01.804Z,236.00
2022-12-04T11:28:00.762Z,244.00
2022-12-04T11:29:00.748Z,240.00
2022-12-04T11:30:00.770Z,236.00
2022-12-04T11:31:00.828Z,240.00
2022-12-04T11:32:07.148Z,244.00
2022-12-04T11:33:01.736Z,244.00
2022-12-04T11:34:00.711Z,248.00
2022-12-04T11:35:00.688Z,256.00
2022-12-04T11:36:00.714Z,264.00
2022-12-04T11:37:00.655Z,268.00
2022-12-04T11:38:00.649Z,280.00
2022-12-04T11:39:00.644Z,276.00
2022-12-04T11:40:00.645Z,288.00
2022-12-04T11:41:00.659Z,292.00
2022-12-04T11:42:00.637Z,292.00
2022-12-04T11:43:00.588Z,300.00
2022-12-04T11:44:01.093Z,296.00
2022-12-04T11:45:00.568Z,300.00
2022-12-04T11:46:00.605Z,292.00
2022-12-04T11:47:00.684Z,308.00
2022-12-04T11:48:00.569Z,328.00
2022-12-04T11:49:00.523Z,316.00
2022-12-04T11:50:00.929Z,304.00
2022-12-04T11:51:00.526Z,316.00
2022-12-04T11:52:00.518Z,324.00
2022-12-04T11:53:00.494Z,320.00
2022-12-04T11:54:00.466Z,324.00
2022-12-04T11:55:00.454Z,312.00
2022-12-04T11:56:00.520Z,296.00
2022-12-04T11:57:00.469Z,284.00
2022-12-04T11:58:00.434Z,280.00
2022-12-04T11:59:00.431Z,268.00
2022-12-04T12:00:00.449Z,256.00
2022-12-04T12:01:00.399Z,264.00
2022-12-04T12:02:00.585Z,264.00
2022-12-04T12:03:00.524Z,272.00
2022-12-04T12:04:00.373Z,272.00
2022-12-04T12:05:00.396Z,276.00
2022-12-04T12:06:00.330Z,268.00
2022-12-04T12:07:00.336Z,264.00
2022-12-04T12:08:02.921Z,252.00
2022-12-04T12:09:00.320Z,244.00
2022-12-04T12:10:00.329Z,236.00
2022-12-04T12:11:00.277Z,232.00
2022-12-04T12:12:00.265Z,236.00
2022-12-04T12:13:00.263Z,244.00
2022-12-04T12:14:00.279Z,248.00
2022-12-04T12:15:00.261Z,236.00
2022-12-04T12:16:00.274Z,232.00
2022-12-04T12:17:00.669Z,232.00
2022-12-04T12:18:00.232Z,244.00
2022-12-04T12:19:00.208Z,268.00
2022-12-04T12:20:00.232Z,292.00
2022-12-04T12:21:00.200Z,312.00
2022-12-04T12:22:05.149Z,332.00
2022-12-04T12:23:01.167Z,308.00
2022-12-04T12:24:01.125Z,300.00
2022-12-04T12:25:00.147Z,288.00
2022-12-04T12:26:00.632Z,292.00
2022-12-04T12:27:00.640Z,276.00
2022-12-04T12:28:00.194Z,272.00
2022-12-04T12:29:00.158Z,292.00
2022-12-04T12:30:00.172Z,312.00
2022-12-04T12:31:05.593Z,300.00
2022-12-04T12:32:01.160Z,312.00
2022-12-04T12:33:00.196Z,312.00
2022-12-04T12:34:00.041Z,272.00
2022-12-04T12:35:00.020Z,244.00
2022-12-04T12:36:00.023Z,240.00
2022-12-04T12:38:01.007Z,212.00
2022-12-04T12:39:00.024Z,192.00
2022-12-04T12:40:00.155Z,196.00
2022-12-04T12:40:59.942Z,188.00
2022-12-04T12:41:59.940Z,184.00
2022-12-04T12:42:59.961Z,188.00
2022-12-04T12:43:59.920Z,184.00
2022-12-04T12:44:59.980Z,168.00
2022-12-04T12:45:59.961Z,160.00
2022-12-04T12:46:59.887Z,172.00
2022-12-04T12:47:59.884Z,188.00
2022-12-04T12:48:59.867Z,192.00
2022-12-04T12:49:59.901Z,192.00
2022-12-04T12:51:22.095Z,192.00
2022-12-04T12:52:00.849Z,196.00
2022-12-04T12:52:59.815Z,196.00
2022-12-04T12:53:59.798Z,188.00
2022-12-04T12:54:59.808Z,184.00
2022-12-04T12:55:59.807Z,172.00
2022-12-04T12:56:59.763Z,168.00